Raleigh, NC (27615)

3:29 PM EDT on April 24, 2017 (GMT -0400)
| | Change Station
Active Advisory: Areal Flood Watch Active Notice: Areal Flood Watch

Elev -9999 ft 0.00 °N, 0.00 °E | Updated 2 minutes ago

Rain
Rain
°F
Feels Like °F
N
Wind Variable Wind from North
Gusts mph

Today
High -- | Low -- °F
--% Chance of Precip.
Yesterday
High -- | Low -- °F
Precip. -- in
Pressure 29.81 in
Visibility 1.5 miles
Clouds Mostly Cloudy 600 ft
Overcast 1600 ft
Dew Point Not available.
Humidity Not available.
Rainfall --
Snow Depth Not available.
6:29 AM 7:55 PM
Waning Crescent, 4% visible
METAR KRDU 241851Z 04011KT 1 1/2SM RA BR BKN006 OVC016 13/13 A2981 RMK AO2 SFC VIS 2 SLP095 P0020 T01330128
Pressure 29.81 in
Visibility 1.5 miles
Clouds Mostly Cloudy 600 ft
Overcast 1600 ft
Dew Point Not available.
Humidity Not available.
Rainfall --
Snow Depth Not available.
6:29 AM 7:55 PM
Waning Crescent, 4% visible
METAR KRDU 241851Z 04011KT 1 1/2SM RA BR BKN006 OVC016 13/13 A2981 RMK AO2 SFC VIS 2 SLP095 P0020 T01330128

Get Your Daily Forecast Email!

Thanks for signing up!

Be on the lookout for a verification email in your inbox.

You'll start receiving severe weather alerts in your inbox..

×

10-Day Weather Forecast

Almanac

Astronomy

Apr. 24, 2017 Rise Set
Actual Time
Civil Twilight
Nautical Twilight
Astronomical Twilight
Moon
Length of Visible Light
Length of Day
Tomorrow will be .
, % of the Moon is Illuminated

Today's Extremes

State Highs State Lows

Community

WunderPhotos

WunderBlog® & News

Nearby

Air Quality

  Air Quality AQ Index Pollutant
Not available.

Snow Depth

Station Depth Elevation

Earthquake Activity

City Distance Mag. Time & Date
Minimum magnitude displayed is 2.5.

Coastal Water Temperatures

Place Temperature

Stations

Nearby Weather Stations

Station Location Temp. Windchill Dew Point Humidity Wind Precip. Elev Updated Type
                   

Watches & Warnings

Areal Flood Watch
Issued: 3:06 AM EDT Apr. 24, 2017 – National Weather Service

... Flood Watch remains in effect through Tuesday morning...

The Flood Watch continues for

* all of central North Carolina.

* Through sunrise Tuesday.

* Widespread rain will shift eastward into central North Carolina
today and tonight. Rain will be heavy at times, especially this
afternoon and evening. Rainfall amounts of 3 to 5 inches are
expected over most of central North Carolina, with locally
heavier amounts possible.

* Flooding of local creeks and streams can be expected. Water
levels in main Stem rivers will rise significantly this
afternoon and tonight, particularly the Yadkin, haw, Neuse,
tar, Roanoke, and Cape Fear.

Precautionary/preparedness actions...

Monitor NOAA Weather Radio or your local media outlet for the
latest forecasts and warnings. Residents in flood prone areas
should prepare for the possibility of flooding today into tonight.


Vincent